Jefferson, CO

7:22 PM MDT on September 30, 2014 (GMT -0600)
RAWS KENOSHA PASS CO US | Change Station
CLOSE
Current Station
Personal Weather Station
Location: Grant, CO
Elevation: 10200 ft
Nearby Weather Stations

Elev 10200 ft 39.41 °N, 105.75 °W | Updated 28 minutes ago

Overcast
Overcast
38 °F
Feels Like 38 °F
N
3
Wind Variable Wind from West
Gusts 15.0 mph

Today
High -- | Low -- °F
--% Chance of Precip.
Yesterday
High -- | Low -- °F
Precip. -- in
6:58 AM 6:47 PM
Waxing Crescent, 42% visible
Pressure 30.13 in
Visibility 4.0 miles
Clouds Scattered Clouds 200 ft
Mostly Cloudy 800 ft
Overcast 1400 ft
Windchill 38 °F
Dew Point 26 °F
Humidity 61%
Rainfall 0.00 in
Snow Depth 0 in , 178 in , 0 in
UV 0 out of 12
Pollen 3.50 out of 12
Air Quality Not available.
Flu Activity Not available.
METAR K0CO 010114Z AUTO 28024G31KT 4SM -SN SCT002 BKN008 OVC014 M03/M05 A3013 RMK AO2 LTG DSNT W

More Conditions Fewer Conditions

Pressure 30.13 in
Visibility 4.0 miles
Clouds Scattered Clouds 200 ft
Mostly Cloudy 800 ft
Overcast 1400 ft
Windchill 38 °F
Dew Point 26 °F
Humidity 61%
Rainfall 0.00 in
Snow Depth 0 in , 178 in , 0 in
UV 0 out of 12
Pollen 3.50 out of 12
Air Quality Not available.
Flu Activity Not available.
METAR K0CO 010114Z AUTO 28024G31KT 4SM -SN SCT002 BKN008 OVC014 M03/M05 A3013 RMK AO2 LTG DSNT W

More Conditions Fewer Conditions

10-Day Weather Forecast

Almanac

Astronomy

Sep. 30, 2014 Rise Set
Actual Time 6:58 AM MDT 6:47 PM MDT
Civil Twilight 6:31 AM MDT 7:13 PM MDT
Nautical Twilight 6:00 AM MDT 7:44 PM MDT
Astronomical Twilight 5:28 AM MDT 8:16 PM MDT
Moon 1:07 PM MDT (9/30) 11:21 PM MDT (9/30)
Length of Visible Light 12h 42m
Length of Day
11h 48m
Tomorrow will be 2m 33s shorter.
Waxing Crescent, 42% of the Moon is Illuminated
Today
Waxing Crescent
Oct 1
First Quarter
Oct 8
Full
Oct 15
Last Quarter
Oct 23
New

Today's Extremes

State Highs State Lows

Community

WunderPhotos

Upload Photos

1,757,815 photos uploaded!

Nearby

Snow Depth

Station Depth Elevation
Park Reservoir 0 in 9960 ft
Fremont Pass 178 in 11400 ft
Rough And Tumble 0 in 10360 ft
Tower 126 in 10500 ft
Roach 2 in 9700 ft

Earthquake Activity

City Distance Mag. Time & Date
No recent earthquake activity has been reported nearby.
Minimum magnitude displayed is 2.5.

Coastal Water Temperatures

Place Temperature
No Stations Reporting

Nearby Weather Stations